sensor_id;sensor_type;location;lat;lon;timestamp;temperature;humidity
74509;SHT31;62990;46.884;17.436;2022-08-19T00:01:58;26.81;48.89
74509;SHT31;62990;46.884;17.436;2022-08-19T00:05:21;26.76;48.79
74509;SHT31;62990;46.884;17.436;2022-08-19T00:08:42;26.77;48.76
74509;SHT31;62990;46.884;17.436;2022-08-19T00:12:04;26.77;48.83
74509;SHT31;62990;46.884;17.436;2022-08-19T00:15:25;26.71;48.89
74509;SHT31;62990;46.884;17.436;2022-08-19T00:18:47;26.68;48.90
74509;SHT31;62990;46.884;17.436;2022-08-19T00:22:10;26.67;48.97
74509;SHT31;62990;46.884;17.436;2022-08-19T00:25:30;26.64;48.99
74509;SHT31;62990;46.884;17.436;2022-08-19T00:28:52;26.63;49.07
74509;SHT31;62990;46.884;17.436;2022-08-19T00:32:13;26.60;49.09
74509;SHT31;62990;46.884;17.436;2022-08-19T00:35:38;26.56;49.19
74509;SHT31;62990;46.884;17.436;2022-08-19T00:38:59;26.54;49.19
74509;SHT31;62990;46.884;17.436;2022-08-19T00:42:22;26.54;49.27
74509;SHT31;62990;46.884;17.436;2022-08-19T00:45:43;26.50;49.25
74509;SHT31;62990;46.884;17.436;2022-08-19T00:49:13;26.49;49.34
74509;SHT31;62990;46.884;17.436;2022-08-19T00:52:38;26.44;49.35
74509;SHT31;62990;46.884;17.436;2022-08-19T00:56:02;26.42;49.38
74509;SHT31;62990;46.884;17.436;2022-08-19T00:59:27;26.40;49.38
74509;SHT31;62990;46.884;17.436;2022-08-19T01:03:14;26.37;49.38
74509;SHT31;62990;46.884;17.436;2022-08-19T01:06:40;26.37;49.44
74509;SHT31;62990;46.884;17.436;2022-08-19T01:10:07;26.35;49.55
74509;SHT31;62990;46.884;17.436;2022-08-19T01:13:32;26.29;49.57
74509;SHT31;62990;46.884;17.436;2022-08-19T01:17:11;26.26;49.74
74509;SHT31;62990;46.884;17.436;2022-08-19T01:20:32;26.23;49.73
74509;SHT31;62990;46.884;17.436;2022-08-19T01:23:55;26.22;49.80
74509;SHT31;62990;46.884;17.436;2022-08-19T01:27:17;26.23;49.85
74509;SHT31;62990;46.884;17.436;2022-08-19T01:30:40;26.22;49.83
74509;SHT31;62990;46.884;17.436;2022-08-19T01:34:10;26.19;49.81
74509;SHT31;62990;46.884;17.436;2022-08-19T01:37:42;26.15;49.81
74509;SHT31;62990;46.884;17.436;2022-08-19T01:41:04;26.12;49.83
74509;SHT31;62990;46.884;17.436;2022-08-19T01:44:31;26.09;49.80
74509;SHT31;62990;46.884;17.436;2022-08-19T01:47:53;26.09;49.81
74509;SHT31;62990;46.884;17.436;2022-08-19T01:51:21;26.03;49.85
74509;SHT31;62990;46.884;17.436;2022-08-19T01:54:43;26.03;49.83
74509;SHT31;62990;46.884;17.436;2022-08-19T01:58:05;26.01;49.86
74509;SHT31;62990;46.884;17.436;2022-08-19T02:01:28;25.99;49.90
74509;SHT31;62990;46.884;17.436;2022-08-19T02:04:52;25.95;49.96
74509;SHT31;62990;46.884;17.436;2022-08-19T02:08:13;25.94;50.12
74509;SHT31;62990;46.884;17.436;2022-08-19T02:11:36;25.91;50.34
74509;SHT31;62990;46.884;17.436;2022-08-19T02:14:58;25.88;50.49
74509;SHT31;62990;46.884;17.436;2022-08-19T02:18:20;25.86;50.53
74509;SHT31;62990;46.884;17.436;2022-08-19T02:21:48;25.86;50.50
74509;SHT31;62990;46.884;17.436;2022-08-19T02:25:11;25.82;50.47
74509;SHT31;62990;46.884;17.436;2022-08-19T02:28:33;25.78;50.49
74509;SHT31;62990;46.884;17.436;2022-08-19T02:31:54;25.77;50.46
74509;SHT31;62990;46.884;17.436;2022-08-19T02:35:16;25.77;50.52
74509;SHT31;62990;46.884;17.436;2022-08-19T02:38:39;25.73;50.52
74509;SHT31;62990;46.884;17.436;2022-08-19T02:42:00;25.73;50.55
74509;SHT31;62990;46.884;17.436;2022-08-19T02:45:22;25.71;50.54
74509;SHT31;62990;46.884;17.436;2022-08-19T02:48:44;25.67;50.67
74509;SHT31;62990;46.884;17.436;2022-08-19T02:52:05;25.64;50.69
74509;SHT31;62990;46.884;17.436;2022-08-19T02:55:26;25.61;50.75
74509;SHT31;62990;46.884;17.436;2022-08-19T02:58:48;25.63;50.83
74509;SHT31;62990;46.884;17.436;2022-08-19T03:02:11;25.58;50.85
74509;SHT31;62990;46.884;17.436;2022-08-19T03:05:32;25.57;50.81
74509;SHT31;62990;46.884;17.436;2022-08-19T03:09:14;25.54;50.80
74509;SHT31;62990;46.884;17.436;2022-08-19T03:12:38;25.53;50.81
74509;SHT31;62990;46.884;17.436;2022-08-19T03:15:59;25.48;50.89
74509;SHT31;62990;46.884;17.436;2022-08-19T03:19:20;25.47;50.92
74509;SHT31;62990;46.884;17.436;2022-08-19T03:22:45;25.46;50.94
74509;SHT31;62990;46.884;17.436;2022-08-19T03:26:06;25.41;50.99
74509;SHT31;62990;46.884;17.436;2022-08-19T03:29:37;25.36;51.01
74509;SHT31;62990;46.884;17.436;2022-08-19T03:33:03;25.37;51.02
74509;SHT31;62990;46.884;17.436;2022-08-19T03:36:26;25.34;51.09
74509;SHT31;62990;46.884;17.436;2022-08-19T03:39:49;25.31;51.13
74509;SHT31;62990;46.884;17.436;2022-08-19T03:43:10;25.29;51.12
74509;SHT31;62990;46.884;17.436;2022-08-19T03:46:32;25.26;51.12
74509;SHT31;62990;46.884;17.436;2022-08-19T03:49:53;25.24;51.16
74509;SHT31;62990;46.884;17.436;2022-08-19T03:53:15;25.27;51.40
74509;SHT31;62990;46.884;17.436;2022-08-19T03:56:38;25.29;51.53
74509;SHT31;62990;46.884;17.436;2022-08-19T04:00:01;25.31;51.82
74509;SHT31;62990;46.884;17.436;2022-08-19T04:03:42;25.36;51.84
74509;SHT31;62990;46.884;17.436;2022-08-19T04:06:45;25.34;51.78
74509;SHT31;62990;46.884;17.436;2022-08-19T04:09:49;25.37;51.78
74509;SHT31;62990;46.884;17.436;2022-08-19T04:12:52;25.38;52.04
74509;SHT31;62990;46.884;17.436;2022-08-19T04:15:55;25.41;51.92
74509;SHT31;62990;46.884;17.436;2022-08-19T04:19:29;25.43;52.18
74509;SHT31;62990;46.884;17.436;2022-08-19T04:22:32;25.44;52.10
74509;SHT31;62990;46.884;17.436;2022-08-19T04:25:39;25.46;52.14
74509;SHT31;62990;46.884;17.436;2022-08-19T04:28:45;25.43;52.05
74509;SHT31;62990;46.884;17.436;2022-08-19T04:31:48;25.47;52.60
74509;SHT31;62990;46.884;17.436;2022-08-19T04:34:51;25.46;52.25
74509;SHT31;62990;46.884;17.436;2022-08-19T04:38:15;25.43;52.18
74509;SHT31;62990;46.884;17.436;2022-08-19T04:41:18;25.40;52.34
74509;SHT31;62990;46.884;17.436;2022-08-19T04:44:39;25.34;52.22
74509;SHT31;62990;46.884;17.436;2022-08-19T04:47:47;25.36;52.16
74509;SHT31;62990;46.884;17.436;2022-08-19T04:50:59;25.30;52.16
74509;SHT31;62990;46.884;17.436;2022-08-19T04:56:13;25.31;52.27
74509;SHT31;62990;46.884;17.436;2022-08-19T04:59:17;25.30;52.37
74509;SHT31;62990;46.884;17.436;2022-08-19T05:02:22;25.33;52.51
74509;SHT31;62990;46.884;17.436;2022-08-19T05:06:37;25.30;52.71
74509;SHT31;62990;46.884;17.436;2022-08-19T05:09:58;25.31;52.73
74509;SHT31;62990;46.884;17.436;2022-08-19T05:13:19;25.33;52.85
74509;SHT31;62990;46.884;17.436;2022-08-19T05:16:40;25.33;52.99
74509;SHT31;62990;46.884;17.436;2022-08-19T05:20:03;25.33;53.18
74509;SHT31;62990;46.884;17.436;2022-08-19T05:23:42;25.38;53.42
74509;SHT31;62990;46.884;17.436;2022-08-19T05:27:04;25.40;53.52
74509;SHT31;62990;46.884;17.436;2022-08-19T05:30:26;25.41;53.99
74509;SHT31;62990;46.884;17.436;2022-08-19T05:34:07;25.44;54.74
74509;SHT31;62990;46.884;17.436;2022-08-19T05:37:40;25.50;54.83
74509;SHT31;62990;46.884;17.436;2022-08-19T05:41:12;25.55;54.65
74509;SHT31;62990;46.884;17.436;2022-08-19T05:44:36;25.57;54.22
74509;SHT31;62990;46.884;17.436;2022-08-19T05:47:57;25.64;53.73
74509;SHT31;62990;46.884;17.436;2022-08-19T05:51:18;25.67;53.95
74509;SHT31;62990;46.884;17.436;2022-08-19T05:54:40;25.74;53.98
74509;SHT31;62990;46.884;17.436;2022-08-19T05:58:02;25.74;53.67
74509;SHT31;62990;46.884;17.436;2022-08-19T06:01:25;25.78;53.64
74509;SHT31;62990;46.884;17.436;2022-08-19T06:04:46;25.84;53.67
74509;SHT31;62990;46.884;17.436;2022-08-19T06:08:07;25.86;53.77
74509;SHT31;62990;46.884;17.436;2022-08-19T06:11:50;25.91;53.92
74509;SHT31;62990;46.884;17.436;2022-08-19T06:15:15;25.94;54.01
74509;SHT31;62990;46.884;17.436;2022-08-19T06:19:25;25.99;54.38
74509;SHT31;62990;46.884;17.436;2022-08-19T06:22:48;26.05;54.01
74509;SHT31;62990;46.884;17.436;2022-08-19T06:26:15;26.09;54.07
74509;SHT31;62990;46.884;17.436;2022-08-19T06:29:36;26.15;54.04
74509;SHT31;62990;46.884;17.436;2022-08-19T06:32:58;26.19;53.79
74509;SHT31;62990;46.884;17.436;2022-08-19T06:36:28;26.23;53.63
74509;SHT31;62990;46.884;17.436;2022-08-19T06:39:54;26.30;53.46
74509;SHT31;62990;46.884;17.436;2022-08-19T06:43:15;26.35;53.28
74509;SHT31;62990;46.884;17.436;2022-08-19T06:46:39;26.37;53.08
74509;SHT31;62990;46.884;17.436;2022-08-19T06:50:02;26.42;52.96
74509;SHT31;62990;46.884;17.436;2022-08-19T06:53:25;26.46;52.88
74509;SHT31;62990;46.884;17.436;2022-08-19T06:56:49;26.50;52.77
74509;SHT31;62990;46.884;17.436;2022-08-19T07:00:10;26.57;52.66
74509;SHT31;62990;46.884;17.436;2022-08-19T07:03:35;26.63;52.59
74509;SHT31;62990;46.884;17.436;2022-08-19T07:07:03;26.65;52.49
74509;SHT31;62990;46.884;17.436;2022-08-19T07:10:45;26.71;52.28
74509;SHT31;62990;46.884;17.436;2022-08-19T07:14:06;26.78;52.21
74509;SHT31;62990;46.884;17.436;2022-08-19T07:17:39;26.84;52.12
74509;SHT31;62990;46.884;17.436;2022-08-19T07:21:13;26.88;51.99
74509;SHT31;62990;46.884;17.436;2022-08-19T07:24:35;26.98;51.90
74509;SHT31;62990;46.884;17.436;2022-08-19T07:27:56;27.05;51.86
74509;SHT31;62990;46.884;17.436;2022-08-19T07:31:20;27.05;51.80
74509;SHT31;62990;46.884;17.436;2022-08-19T07:34:43;27.14;51.71
74509;SHT31;62990;46.884;17.436;2022-08-19T07:38:06;27.19;51.66
74509;SHT31;62990;46.884;17.436;2022-08-19T07:41:28;27.26;51.59
74509;SHT31;62990;46.884;17.436;2022-08-19T07:44:51;27.32;51.51
74509;SHT31;62990;46.884;17.436;2022-08-19T07:48:13;27.38;51.40
74509;SHT31;62990;46.884;17.436;2022-08-19T07:51:35;27.46;51.35
74509;SHT31;62990;46.884;17.436;2022-08-19T07:54:56;27.52;51.26
74509;SHT31;62990;46.884;17.436;2022-08-19T07:58:19;27.57;51.23
74509;SHT31;62990;46.884;17.436;2022-08-19T08:01:40;27.67;51.16
74509;SHT31;62990;46.884;17.436;2022-08-19T08:05:02;27.70;51.05
74509;SHT31;62990;46.884;17.436;2022-08-19T08:08:42;27.77;51.04
74509;SHT31;62990;46.884;17.436;2022-08-19T08:12:30;27.81;51.01
74509;SHT31;62990;46.884;17.436;2022-08-19T08:15:56;27.89;50.97
74509;SHT31;62990;46.884;17.436;2022-08-19T08:19:19;27.94;50.86
74509;SHT31;62990;46.884;17.436;2022-08-19T08:22:47;28.01;50.84
74509;SHT31;62990;46.884;17.436;2022-08-19T08:26:26;28.07;50.68
74509;SHT31;62990;46.884;17.436;2022-08-19T08:29:47;28.12;50.60
74509;SHT31;62990;46.884;17.436;2022-08-19T08:33:09;28.21;50.63
74509;SHT31;62990;46.884;17.436;2022-08-19T08:36:30;28.25;50.49
74509;SHT31;62990;46.884;17.436;2022-08-19T08:39:54;28.37;50.48
74509;SHT31;62990;46.884;17.436;2022-08-19T08:43:28;28.42;50.39
74509;SHT31;62990;46.884;17.436;2022-08-19T08:46:57;28.51;50.23
74509;SHT31;62990;46.884;17.436;2022-08-19T08:50:30;28.60;50.09
74509;SHT31;62990;46.884;17.436;2022-08-19T08:53:57;28.69;49.94
74509;SHT31;62990;46.884;17.436;2022-08-19T08:57:27;28.76;49.80
74509;SHT31;62990;46.884;17.436;2022-08-19T09:01:00;28.80;49.69
74509;SHT31;62990;46.884;17.436;2022-08-19T09:04:21;28.83;49.67
74509;SHT31;62990;46.884;17.436;2022-08-19T09:07:55;28.87;49.62
74509;SHT31;62990;46.884;17.436;2022-08-19T09:15:06;29.03;49.39
74509;SHT31;62990;46.884;17.436;2022-08-19T09:18:43;29.08;49.29
74509;SHT31;62990;46.884;17.436;2022-08-19T09:22:04;29.13;49.29
74509;SHT31;62990;46.884;17.436;2022-08-19T09:25:26;29.15;49.36
74509;SHT31;62990;46.884;17.436;2022-08-19T09:28:51;29.18;49.37
74509;SHT31;62990;46.884;17.436;2022-08-19T09:32:13;29.21;49.41
74509;SHT31;62990;46.884;17.436;2022-08-19T09:35:46;29.24;49.36
74509;SHT31;62990;46.884;17.436;2022-08-19T09:39:13;29.31;49.39
74509;SHT31;62990;46.884;17.436;2022-08-19T09:42:35;29.37;49.32
74509;SHT31;62990;46.884;17.436;2022-08-19T09:45:57;29.38;49.28
74509;SHT31;62990;46.884;17.436;2022-08-19T09:49:19;29.39;49.22
74509;SHT31;62990;46.884;17.436;2022-08-19T09:52:44;29.42;49.21
74509;SHT31;62990;46.884;17.436;2022-08-19T09:56:18;29.44;49.16
74509;SHT31;62990;46.884;17.436;2022-08-19T09:59:39;29.45;49.24
74509;SHT31;62990;46.884;17.436;2022-08-19T10:03:00;29.48;49.22
74509;SHT31;62990;46.884;17.436;2022-08-19T10:06:26;29.51;49.18
74509;SHT31;62990;46.884;17.436;2022-08-19T10:10:07;29.52;49.07
74509;SHT31;62990;46.884;17.436;2022-08-19T10:13:30;29.55;49.11
74509;SHT31;62990;46.884;17.436;2022-08-19T10:16:50;29.52;48.94
74509;SHT31;62990;46.884;17.436;2022-08-19T10:20:12;29.54;48.75
74509;SHT31;62990;46.884;17.436;2022-08-19T10:23:34;29.52;48.79
74509;SHT31;62990;46.884;17.436;2022-08-19T10:26:56;29.54;48.88
74509;SHT31;62990;46.884;17.436;2022-08-19T10:30:19;29.50;48.96
74509;SHT31;62990;46.884;17.436;2022-08-19T10:33:41;29.51;48.96
74509;SHT31;62990;46.884;17.436;2022-08-19T10:37:13;29.51;48.93
74509;SHT31;62990;46.884;17.436;2022-08-19T10:40:42;29.52;48.89
74509;SHT31;62990;46.884;17.436;2022-08-19T10:44:08;29.51;49.00
74509;SHT31;62990;46.884;17.436;2022-08-19T10:47:33;29.47;49.24
74509;SHT31;62990;46.884;17.436;2022-08-19T10:50:57;29.45;49.31
74509;SHT31;62990;46.884;17.436;2022-08-19T10:54:42;29.48;49.77
74509;SHT31;62990;46.884;17.436;2022-08-19T10:58:27;29.50;50.14
74509;SHT31;62990;46.884;17.436;2022-08-19T11:01:48;29.51;49.93
74509;SHT31;62990;46.884;17.436;2022-08-19T11:05:13;29.52;48.64
74509;SHT31;62990;46.884;17.436;2022-08-19T11:08:36;29.48;48.81
74509;SHT31;62990;46.884;17.436;2022-08-19T11:11:58;29.45;48.63
74509;SHT31;62990;46.884;17.436;2022-08-19T11:15:22;29.45;48.36
74509;SHT31;62990;46.884;17.436;2022-08-19T11:18:47;29.39;48.14
74509;SHT31;62990;46.884;17.436;2022-08-19T11:22:09;29.37;48.21
74509;SHT31;62990;46.884;17.436;2022-08-19T11:25:38;29.35;48.21
74509;SHT31;62990;46.884;17.436;2022-08-19T11:28:59;29.30;48.03
74509;SHT31;62990;46.884;17.436;2022-08-19T11:32:20;29.27;48.04
74509;SHT31;62990;46.884;17.436;2022-08-19T11:35:41;29.23;48.36
74509;SHT31;62990;46.884;17.436;2022-08-19T11:39:03;29.24;47.94
74509;SHT31;62990;46.884;17.436;2022-08-19T11:42:24;29.24;47.57
74509;SHT31;62990;46.884;17.436;2022-08-19T11:46:05;29.28;47.45
74509;SHT31;62990;46.884;17.436;2022-08-19T11:49:30;29.30;47.42
74509;SHT31;62990;46.884;17.436;2022-08-19T11:54:14;29.30;47.43
74509;SHT31;62990;46.884;17.436;2022-08-19T11:57:19;29.27;47.24
74509;SHT31;62990;46.884;17.436;2022-08-19T12:00:24;29.24;47.31
74509;SHT31;62990;46.884;17.436;2022-08-19T12:03:28;29.23;47.71
74509;SHT31;62990;46.884;17.436;2022-08-19T12:06:37;29.18;47.71
74509;SHT31;62990;46.884;17.436;2022-08-19T12:09:43;29.13;48.06
74509;SHT31;62990;46.884;17.436;2022-08-19T12:12:51;29.07;47.82
74509;SHT31;62990;46.884;17.436;2022-08-19T12:16:06;29.04;48.06
74509;SHT31;62990;46.884;17.436;2022-08-19T12:19:11;29.02;48.08
74509;SHT31;62990;46.884;17.436;2022-08-19T12:22:24;28.97;48.31
74509;SHT31;62990;46.884;17.436;2022-08-19T12:25:29;28.89;48.55
74509;SHT31;62990;46.884;17.436;2022-08-19T12:28:34;28.83;49.21
74509;SHT31;62990;46.884;17.436;2022-08-19T12:31:40;28.75;50.29
74509;SHT31;62990;46.884;17.436;2022-08-19T12:34:45;28.69;52.23
74509;SHT31;62990;46.884;17.436;2022-08-19T12:37:50;28.58;53.80
74509;SHT31;62990;46.884;17.436;2022-08-19T12:41:01;28.45;54.97
74509;SHT31;62990;46.884;17.436;2022-08-19T12:44:09;28.38;55.35
74509;SHT31;62990;46.884;17.436;2022-08-19T12:47:17;28.28;55.64
74509;SHT31;62990;46.884;17.436;2022-08-19T12:50:22;28.24;56.00
74509;SHT31;62990;46.884;17.436;2022-08-19T12:53:26;28.17;56.54
74509;SHT31;62990;46.884;17.436;2022-08-19T12:56:33;28.14;56.64
74509;SHT31;62990;46.884;17.436;2022-08-19T12:59:39;28.11;56.89
74509;SHT31;62990;46.884;17.436;2022-08-19T13:02:45;28.07;56.97
74509;SHT31;62990;46.884;17.436;2022-08-19T13:05:51;28.02;56.92
74509;SHT31;62990;46.884;17.436;2022-08-19T13:08:55;28.00;57.41
74509;SHT31;62990;46.884;17.436;2022-08-19T13:12:04;27.97;58.00
74509;SHT31;62990;46.884;17.436;2022-08-19T13:15:11;27.93;58.39
74509;SHT31;62990;46.884;17.436;2022-08-19T13:18:17;27.89;57.80
74509;SHT31;62990;46.884;17.436;2022-08-19T13:21:25;27.83;57.54
74509;SHT31;62990;46.884;17.436;2022-08-19T13:24:30;27.81;57.83
74509;SHT31;62990;46.884;17.436;2022-08-19T13:27:37;27.77;58.29
74509;SHT31;62990;46.884;17.436;2022-08-19T13:30:46;27.74;58.63
74509;SHT31;62990;46.884;17.436;2022-08-19T13:34:09;27.73;58.89
74509;SHT31;62990;46.884;17.436;2022-08-19T13:37:13;27.69;59.27
74509;SHT31;62990;46.884;17.436;2022-08-19T13:40:20;27.70;59.73
74509;SHT31;62990;46.884;17.436;2022-08-19T13:43:28;27.67;60.54
74509;SHT31;62990;46.884;17.436;2022-08-19T13:46:32;27.71;60.56
74509;SHT31;62990;46.884;17.436;2022-08-19T13:49:37;27.73;60.03
74509;SHT31;62990;46.884;17.436;2022-08-19T13:52:42;27.76;60.03
74509;SHT31;62990;46.884;17.436;2022-08-19T13:55:46;27.79;59.84
74509;SHT31;62990;46.884;17.436;2022-08-19T13:58:54;27.79;59.14
74509;SHT31;62990;46.884;17.436;2022-08-19T14:02:02;27.81;58.90
74509;SHT31;62990;46.884;17.436;2022-08-19T14:05:11;27.86;58.57
74509;SHT31;62990;46.884;17.436;2022-08-19T14:08:16;27.86;58.51
74509;SHT31;62990;46.884;17.436;2022-08-19T14:11:21;27.86;58.49
74509;SHT31;62990;46.884;17.436;2022-08-19T14:14:27;27.87;58.37
74509;SHT31;62990;46.884;17.436;2022-08-19T14:17:32;27.90;57.97
74509;SHT31;62990;46.884;17.436;2022-08-19T14:20:38;27.87;57.81
74509;SHT31;62990;46.884;17.436;2022-08-19T14:23:42;27.90;58.46
74509;SHT31;62990;46.884;17.436;2022-08-19T14:26:47;27.87;59.27
74509;SHT31;62990;46.884;17.436;2022-08-19T14:31:33;27.86;59.19
74509;SHT31;62990;46.884;17.436;2022-08-19T14:34:38;27.77;60.81
74509;SHT31;62990;46.884;17.436;2022-08-19T14:37:44;27.66;61.38
74509;SHT31;62990;46.884;17.436;2022-08-19T14:40:49;27.55;61.28
74509;SHT31;62990;46.884;17.436;2022-08-19T14:43:57;27.49;62.18
74509;SHT31;62990;46.884;17.436;2022-08-19T14:47:04;27.47;62.71
74509;SHT31;62990;46.884;17.436;2022-08-19T14:50:12;27.43;62.65
74509;SHT31;62990;46.884;17.436;2022-08-19T14:53:20;27.41;62.32
74509;SHT31;62990;46.884;17.436;2022-08-19T14:56:27;27.42;62.40
74509;SHT31;62990;46.884;17.436;2022-08-19T14:59:32;27.41;62.76
74509;SHT31;62990;46.884;17.436;2022-08-19T15:02:39;27.41;62.65
74509;SHT31;62990;46.884;17.436;2022-08-19T15:05:44;27.43;62.66
74509;SHT31;62990;46.884;17.436;2022-08-19T15:08:49;27.42;62.53
74509;SHT31;62990;46.884;17.436;2022-08-19T15:11:54;27.41;62.04
74509;SHT31;62990;46.884;17.436;2022-08-19T15:15:01;27.42;62.38
74509;SHT31;62990;46.884;17.436;2022-08-19T15:18:07;27.42;62.71
74509;SHT31;62990;46.884;17.436;2022-08-19T15:21:12;27.39;62.72
74509;SHT31;62990;46.884;17.436;2022-08-19T15:24:29;27.36;62.61
74509;SHT31;62990;46.884;17.436;2022-08-19T15:27:33;27.32;62.23
74509;SHT31;62990;46.884;17.436;2022-08-19T15:30:39;27.31;61.70
74509;SHT31;62990;46.884;17.436;2022-08-19T15:33:45;27.32;61.05
74509;SHT31;62990;46.884;17.436;2022-08-19T15:36:54;27.32;60.84
74509;SHT31;62990;46.884;17.436;2022-08-19T15:40:01;27.31;60.71
74509;SHT31;62990;46.884;17.436;2022-08-19T15:43:06;27.31;60.42
74509;SHT31;62990;46.884;17.436;2022-08-19T15:46:10;27.29;60.22
74509;SHT31;62990;46.884;17.436;2022-08-19T15:49:20;27.31;60.31
74509;SHT31;62990;46.884;17.436;2022-08-19T15:52:25;27.31;60.24
74509;SHT31;62990;46.884;17.436;2022-08-19T15:55:32;27.35;59.87
74509;SHT31;62990;46.884;17.436;2022-08-19T15:58:37;27.36;59.69
74509;SHT31;62990;46.884;17.436;2022-08-19T16:02:00;27.34;59.20
74509;SHT31;62990;46.884;17.436;2022-08-19T16:05:25;27.36;58.43
74509;SHT31;62990;46.884;17.436;2022-08-19T16:08:47;27.35;58.14
74509;SHT31;62990;46.884;17.436;2022-08-19T16:11:52;27.36;57.68
74509;SHT31;62990;46.884;17.436;2022-08-19T16:15:04;27.35;57.29
74509;SHT31;62990;46.884;17.436;2022-08-19T16:18:09;27.35;57.15
74509;SHT31;62990;46.884;17.436;2022-08-19T16:21:15;27.34;57.27
74509;SHT31;62990;46.884;17.436;2022-08-19T16:24:21;27.31;57.26
74509;SHT31;62990;46.884;17.436;2022-08-19T16:27:26;27.31;57.36
74509;SHT31;62990;46.884;17.436;2022-08-19T16:30:32;27.26;57.48
74509;SHT31;62990;46.884;17.436;2022-08-19T16:33:37;27.22;58.12
74509;SHT31;62990;46.884;17.436;2022-08-19T16:36:42;27.18;58.89
74509;SHT31;62990;46.884;17.436;2022-08-19T16:39:47;27.15;59.39
74509;SHT31;62990;46.884;17.436;2022-08-19T16:42:52;27.14;59.61
74509;SHT31;62990;46.884;17.436;2022-08-19T16:45:57;27.18;59.74
74509;SHT31;62990;46.884;17.436;2022-08-19T16:49:01;27.12;59.85
74509;SHT31;62990;46.884;17.436;2022-08-19T16:52:07;27.14;59.82
74509;SHT31;62990;46.884;17.436;2022-08-19T16:55:13;27.14;59.65
74509;SHT31;62990;46.884;17.436;2022-08-19T16:58:20;27.15;59.98
74509;SHT31;62990;46.884;17.436;2022-08-19T17:01:30;27.15;60.40
74509;SHT31;62990;46.884;17.436;2022-08-19T17:07:28;27.16;60.82
74509;SHT31;62990;46.884;17.436;2022-08-19T17:10:36;27.18;60.36
74509;SHT31;62990;46.884;17.436;2022-08-19T17:13:41;27.19;59.91
74509;SHT31;62990;46.884;17.436;2022-08-19T17:16:49;27.19;59.56
74509;SHT31;62990;46.884;17.436;2022-08-19T17:20:52;27.16;59.55
74509;SHT31;62990;46.884;17.436;2022-08-19T17:24:00;27.11;60.55
74509;SHT31;62990;46.884;17.436;2022-08-19T17:27:05;27.05;60.94
74509;SHT31;62990;46.884;17.436;2022-08-19T17:30:10;27.05;61.26
74509;SHT31;62990;46.884;17.436;2022-08-19T17:41:39;26.98;62.08
74509;SHT31;62990;46.884;17.436;2022-08-19T17:44:44;26.97;61.86
74509;SHT31;62990;46.884;17.436;2022-08-19T17:47:52;26.94;62.04
74509;SHT31;62990;46.884;17.436;2022-08-19T17:50:56;26.95;61.97
74509;SHT31;62990;46.884;17.436;2022-08-19T17:54:01;26.98;61.77
74509;SHT31;62990;46.884;17.436;2022-08-19T17:57:06;26.99;61.70
74509;SHT31;62990;46.884;17.436;2022-08-19T18:00:11;26.98;61.65
74509;SHT31;62990;46.884;17.436;2022-08-19T18:03:18;27.02;61.51
74509;SHT31;62990;46.884;17.436;2022-08-19T18:06:21;27.07;61.55
74509;SHT31;62990;46.884;17.436;2022-08-19T18:09:26;27.05;61.50
74509;SHT31;62990;46.884;17.436;2022-08-19T18:12:45;27.04;61.41
74509;SHT31;62990;46.884;17.436;2022-08-19T18:15:49;27.05;61.32
74509;SHT31;62990;46.884;17.436;2022-08-19T18:18:52;27.05;61.27
74509;SHT31;62990;46.884;17.436;2022-08-19T18:21:56;27.02;61.36
74509;SHT31;62990;46.884;17.436;2022-08-19T18:25:00;27.01;61.56
74509;SHT31;62990;46.884;17.436;2022-08-19T18:28:07;27.01;61.53
74509;SHT31;62990;46.884;17.436;2022-08-19T18:31:10;26.98;61.57
74509;SHT31;62990;46.884;17.436;2022-08-19T18:34:14;26.98;61.69
74509;SHT31;62990;46.884;17.436;2022-08-19T18:37:18;26.98;61.74
74509;SHT31;62990;46.884;17.436;2022-08-19T18:40:22;26.92;62.01
74509;SHT31;62990;46.884;17.436;2022-08-19T18:43:45;26.92;62.36
74509;SHT31;62990;46.884;17.436;2022-08-19T18:47:06;26.94;62.91
74509;SHT31;62990;46.884;17.436;2022-08-19T18:50:27;26.88;62.97
74509;SHT31;62990;46.884;17.436;2022-08-19T18:53:32;26.91;63.19
74509;SHT31;62990;46.884;17.436;2022-08-19T18:56:36;26.87;63.44
74509;SHT31;62990;46.884;17.436;2022-08-19T18:59:46;26.83;63.98
74509;SHT31;62990;46.884;17.436;2022-08-19T19:02:49;26.81;63.97
74509;SHT31;62990;46.884;17.436;2022-08-19T19:05:55;26.77;63.73
74509;SHT31;62990;46.884;17.436;2022-08-19T19:09:00;26.76;63.47
74509;SHT31;62990;46.884;17.436;2022-08-19T19:12:05;26.73;63.38
74509;SHT31;62990;46.884;17.436;2022-08-19T19:15:12;26.71;63.45
74509;SHT31;62990;46.884;17.436;2022-08-19T19:18:16;26.68;63.53
74509;SHT31;62990;46.884;17.436;2022-08-19T19:21:21;26.60;63.67
74509;SHT31;62990;46.884;17.436;2022-08-19T19:24:27;26.61;63.69
74509;SHT31;62990;46.884;17.436;2022-08-19T19:27:31;26.59;63.70
74509;SHT31;62990;46.884;17.436;2022-08-19T19:30:36;26.56;63.65
74509;SHT31;62990;46.884;17.436;2022-08-19T19:33:40;26.56;63.71
74509;SHT31;62990;46.884;17.436;2022-08-19T19:36:44;26.53;63.58
74509;SHT31;62990;46.884;17.436;2022-08-19T19:39:48;26.50;63.57
74509;SHT31;62990;46.884;17.436;2022-08-19T19:42:52;26.50;63.60
74509;SHT31;62990;46.884;17.436;2022-08-19T19:45:58;26.47;63.43
74509;SHT31;62990;46.884;17.436;2022-08-19T19:49:02;26.44;63.39
74509;SHT31;62990;46.884;17.436;2022-08-19T19:52:05;26.47;63.23
74509;SHT31;62990;46.884;17.436;2022-08-19T19:55:16;26.43;63.17
74509;SHT31;62990;46.884;17.436;2022-08-19T19:58:20;26.42;63.22
74509;SHT31;62990;46.884;17.436;2022-08-19T20:01:31;26.40;63.19
74509;SHT31;62990;46.884;17.436;2022-08-19T20:04:35;26.40;63.29
74509;SHT31;62990;46.884;17.436;2022-08-19T20:07:40;26.37;63.34
74509;SHT31;62990;46.884;17.436;2022-08-19T20:11:03;26.36;63.40
74509;SHT31;62990;46.884;17.436;2022-08-19T20:14:09;26.35;63.41
74509;SHT31;62990;46.884;17.436;2022-08-19T20:17:15;26.33;63.34
74509;SHT31;62990;46.884;17.436;2022-08-19T20:20:18;26.32;63.28
74509;SHT31;62990;46.884;17.436;2022-08-19T20:23:23;26.30;63.38
74509;SHT31;62990;46.884;17.436;2022-08-19T20:26:27;26.28;63.41
74509;SHT31;62990;46.884;17.436;2022-08-19T20:29:35;26.26;63.39
74509;SHT31;62990;46.884;17.436;2022-08-19T20:32:44;26.22;63.39
74509;SHT31;62990;46.884;17.436;2022-08-19T20:35:48;26.22;63.45
74509;SHT31;62990;46.884;17.436;2022-08-19T20:38:51;26.21;63.41
74509;SHT31;62990;46.884;17.436;2022-08-19T20:41:54;26.21;63.36